createdAt,value
2023-05-05T00:03:35.321Z,4.18
2023-05-05T00:07:38.196Z,4.15
2023-05-05T00:11:42.244Z,4.40
2023-05-05T00:15:46.890Z,4.55
2023-05-05T00:19:49.634Z,4.30
2023-05-05T00:23:52.386Z,4.20
2023-05-05T00:27:56.600Z,4.00
2023-05-05T00:31:59.410Z,4.65
2023-05-05T00:36:02.194Z,4.20
2023-05-05T00:40:05.841Z,4.45
2023-05-05T00:44:10.065Z,4.05
2023-05-05T00:48:13.284Z,4.30
2023-05-05T00:52:16.114Z,4.38
2023-05-05T00:56:21.995Z,4.20
2023-05-05T01:00:27.008Z,4.25
2023-05-05T01:04:31.218Z,4.40
2023-05-05T01:08:45.377Z,5.00
2023-05-05T01:12:56.363Z,4.30
2023-05-05T01:17:11.225Z,4.25
2023-05-05T01:21:16.203Z,4.50
2023-05-05T01:25:36.310Z,4.20
2023-05-05T01:29:51.447Z,4.13
2023-05-05T01:34:01.617Z,4.30
2023-05-05T01:38:09.734Z,4.22
2023-05-05T01:42:14.912Z,4.10
2023-05-05T01:46:20.136Z,3.88
2023-05-05T01:50:28.269Z,4.05
2023-05-05T01:54:33.003Z,3.63
2023-05-05T01:58:38.370Z,4.15
2023-05-05T02:02:43.302Z,4.03
2023-05-05T02:06:50.448Z,4.00
2023-05-05T02:10:54.720Z,4.10
2023-05-05T02:14:59.831Z,4.10
2023-05-05T02:19:05.311Z,3.90
2023-05-05T02:23:09.767Z,3.80
2023-05-05T02:27:15.545Z,3.92
2023-05-05T02:31:21.079Z,3.80
2023-05-05T02:35:26.880Z,3.95
2023-05-05T02:39:33.842Z,4.45
2023-05-05T02:43:44.081Z,3.90
2023-05-05T02:47:46.999Z,4.25
2023-05-05T02:51:50.417Z,4.10
2023-05-05T02:56:11.183Z,4.30
2023-05-05T03:00:27.615Z,4.50
2023-05-05T03:04:39.157Z,4.40
2023-05-05T03:08:45.354Z,4.13
2023-05-05T03:12:57.374Z,3.88
2023-05-05T03:17:07.502Z,4.15
2023-05-05T03:21:11.379Z,4.40
2023-05-05T03:25:17.012Z,4.03
2023-05-05T03:29:26.468Z,3.95
2023-05-05T03:33:29.550Z,4.00
2023-05-05T03:37:35.495Z,4.38
2023-05-05T03:41:38.328Z,4.22
2023-05-05T03:45:45.266Z,4.35
2023-05-05T03:49:48.547Z,3.92
2023-05-05T03:53:51.284Z,3.80
2023-05-05T03:57:54.439Z,4.40
2023-05-05T04:01:58.547Z,3.88
2023-05-05T04:06:02.210Z,4.03
2023-05-05T04:10:08.837Z,4.15
2023-05-05T04:14:11.826Z,3.90
2023-05-05T04:18:16.156Z,4.22
2023-05-05T04:22:19.660Z,4.15
2023-05-05T04:26:22.580Z,4.40
2023-05-05T04:30:25.441Z,4.30
2023-05-05T04:34:29.666Z,3.95
2023-05-05T04:38:32.862Z,4.32
2023-05-05T04:42:36.840Z,4.35
2023-05-05T04:46:40.333Z,4.00
2023-05-05T04:50:44.605Z,3.83
2023-05-05T04:54:48.396Z,3.75
2023-05-05T04:58:51.553Z,5.10
2023-05-05T05:02:54.361Z,4.05
2023-05-05T05:06:59.365Z,4.32
2023-05-05T05:11:02.867Z,4.60
2023-05-05T05:15:06.693Z,5.10
2023-05-05T05:19:09.582Z,4.88
2023-05-05T05:23:14.220Z,4.72
2023-05-05T05:27:21.091Z,4.47
2023-05-05T05:31:26.414Z,4.20
2023-05-05T05:35:33.877Z,4.70
2023-05-05T05:39:38.312Z,4.63
2023-05-05T05:43:41.516Z,5.00
2023-05-05T05:47:45.107Z,4.85
2023-05-05T05:51:48.151Z,4.70
2023-05-05T05:55:52.313Z,4.53
2023-05-05T05:59:56.808Z,4.93
2023-05-05T06:04:01.416Z,5.38
2023-05-05T06:08:04.689Z,4.75
2023-05-05T06:12:12.005Z,4.85
2023-05-05T06:16:15.237Z,5.00
2023-05-05T06:20:20.646Z,4.32
2023-05-05T06:24:23.504Z,4.90
2023-05-05T06:28:27.695Z,5.50
2023-05-05T06:32:30.704Z,5.72
2023-05-05T06:36:33.655Z,5.93
2023-05-05T06:40:36.674Z,6.10
2023-05-05T06:44:40.775Z,6.40
2023-05-05T06:48:43.880Z,6.18
2023-05-05T06:52:46.559Z,6.60
2023-05-05T06:56:49.221Z,7.05
2023-05-05T07:00:54.087Z,7.45
2023-05-05T07:04:56.851Z,7.43
2023-05-05T07:08:59.585Z,8.20
2023-05-05T07:13:02.384Z,7.72
2023-05-05T07:17:07.324Z,7.97
2023-05-05T07:21:10.054Z,7.95
2023-05-05T07:25:12.858Z,8.45
2023-05-05T07:29:15.785Z,9.77
2023-05-05T07:33:19.852Z,9.70
2023-05-05T07:37:22.808Z,8.68
2023-05-05T07:41:25.649Z,11.73
2023-05-05T07:45:28.761Z,13.50
2023-05-05T07:49:33.102Z,13.88
2023-05-05T07:53:35.805Z,13.93
2023-05-05T07:57:38.694Z,14.43
2023-05-05T08:01:41.440Z,14.27
2023-05-05T08:05:45.485Z,14.77
2023-05-05T08:09:48.187Z,15.60
2023-05-05T08:13:50.961Z,15.43
2023-05-05T08:17:55.706Z,15.02
2023-05-05T08:22:01.506Z,15.20
2023-05-05T08:26:06.110Z,15.25
2023-05-05T08:30:10.646Z,15.00
2023-05-05T08:34:13.461Z,14.80
2023-05-05T08:38:19.009Z,14.50
2023-05-05T08:42:35.427Z,14.68
2023-05-05T08:46:41.497Z,15.32
2023-05-05T08:50:47.919Z,16.92
2023-05-05T08:54:57.736Z,15.77
2023-05-05T08:59:01.144Z,16.05
2023-05-05T09:03:05.708Z,14.95
2023-05-05T09:07:09.336Z,11.95
2023-05-05T09:11:13.369Z,11.82
2023-05-05T09:15:16.354Z,12.23
2023-05-05T09:19:21.153Z,9.43
2023-05-05T09:23:23.870Z,9.18
2023-05-05T09:27:28.342Z,10.00
2023-05-05T09:31:31.909Z,8.63
2023-05-05T09:35:52.354Z,8.85
2023-05-05T09:39:55.977Z,9.93
2023-05-05T09:44:00.012Z,10.60
2023-05-05T09:48:02.932Z,9.93
2023-05-05T09:52:14.250Z,10.30
2023-05-05T09:56:17.308Z,9.93
2023-05-05T10:00:22.272Z,9.80
2023-05-05T10:04:28.579Z,9.25
2023-05-05T10:08:34.039Z,6.95
2023-05-05T10:12:37.767Z,7.10
2023-05-05T10:16:47.242Z,6.63
2023-05-05T10:20:55.530Z,6.78
2023-05-05T10:25:01.466Z,5.95
2023-05-05T10:29:08.557Z,5.53
2023-05-05T10:33:31.488Z,4.88
2023-05-05T10:37:37.004Z,4.90
2023-05-05T10:41:39.968Z,5.05
2023-05-05T10:45:43.817Z,5.63
2023-05-05T10:49:54.861Z,5.00
2023-05-05T10:54:03.946Z,4.30
2023-05-05T10:58:06.673Z,4.95
2023-05-05T11:02:23.477Z,3.40
2023-05-05T11:06:28.627Z,4.10
2023-05-05T11:10:45.242Z,5.40
2023-05-05T11:14:48.097Z,5.97
2023-05-05T11:18:50.934Z,6.30
2023-05-05T11:23:25.344Z,6.10
2023-05-05T11:28:01.401Z,6.15
2023-05-05T11:32:15.470Z,5.32
2023-05-05T11:36:19.563Z,5.78
2023-05-05T11:40:30.413Z,5.60
2023-05-05T11:44:34.512Z,6.03
2023-05-05T11:48:45.896Z,5.72
2023-05-05T11:52:49.043Z,5.57
2023-05-05T11:56:54.208Z,5.03
2023-05-05T12:00:57.000Z,5.38
2023-05-05T12:05:00.722Z,5.70
2023-05-05T12:09:04.945Z,4.97
2023-05-05T12:13:20.363Z,5.93
2023-05-05T12:17:24.327Z,6.15
2023-05-05T12:21:27.075Z,5.78
2023-05-05T12:25:38.001Z,6.13
2023-05-05T12:29:42.075Z,6.20
2023-05-05T12:33:45.376Z,6.72
2023-05-05T12:37:48.171Z,6.30
2023-05-05T12:41:51.046Z,5.53
2023-05-05T12:46:02.598Z,5.25
2023-05-05T12:50:05.940Z,5.93
2023-05-05T12:54:10.386Z,5.90
2023-05-05T12:58:13.353Z,5.50
2023-05-05T13:02:17.531Z,5.28
2023-05-05T13:06:21.428Z,5.07
2023-05-05T13:10:24.966Z,5.85
2023-05-05T13:14:27.739Z,5.43
2023-05-05T13:18:32.146Z,5.80
2023-05-05T13:22:35.067Z,5.60
2023-05-05T13:26:37.796Z,5.43
2023-05-05T13:30:40.898Z,5.20
2023-05-05T13:34:45.136Z,4.22
2023-05-05T13:38:47.856Z,3.65
2023-05-05T13:42:50.836Z,5.07
2023-05-05T13:46:53.646Z,4.97
2023-05-05T13:50:58.000Z,4.93
2023-05-05T13:55:00.886Z,3.55
2023-05-05T13:59:03.865Z,3.72
2023-05-05T14:03:06.833Z,5.53
2023-05-05T14:07:10.970Z,6.20
2023-05-05T14:11:13.870Z,5.55
2023-05-05T14:15:16.699Z,5.10
2023-05-05T14:19:19.554Z,4.82
2023-05-05T14:23:23.780Z,4.97
2023-05-05T14:27:26.658Z,6.22
2023-05-05T14:31:29.727Z,5.50
2023-05-05T14:35:32.579Z,6.22
2023-05-05T14:39:36.775Z,5.78
2023-05-05T14:43:39.746Z,5.65
2023-05-05T14:47:42.531Z,6.53
2023-05-05T14:51:45.297Z,6.10
2023-05-05T14:55:49.460Z,5.70
2023-05-05T14:59:53.018Z,4.20
2023-05-05T15:03:56.134Z,5.47
2023-05-05T15:07:58.962Z,4.70
2023-05-05T15:12:03.058Z,4.03
2023-05-05T15:16:09.123Z,2.97
2023-05-05T15:20:12.813Z,3.40
2023-05-05T15:24:15.870Z,3.58
2023-05-05T15:28:20.100Z,2.80
2023-05-05T15:32:22.941Z,3.38
2023-05-05T15:36:25.842Z,3.00
2023-05-05T15:40:28.687Z,3.63
2023-05-05T15:44:33.014Z,3.88
2023-05-05T15:48:35.967Z,3.92
2023-05-05T15:52:38.957Z,5.03
2023-05-05T15:56:42.988Z,4.50
2023-05-05T16:00:51.452Z,4.75
2023-05-05T16:04:54.842Z,4.50
2023-05-05T16:08:58.625Z,5.03
2023-05-05T16:13:01.553Z,5.80
2023-05-05T16:17:05.668Z,4.90
2023-05-05T16:21:09.050Z,5.07
2023-05-05T16:25:11.868Z,5.30
2023-05-05T16:29:14.703Z,5.80
2023-05-05T16:33:18.835Z,5.30
2023-05-05T16:37:21.724Z,5.70
2023-05-05T16:41:25.987Z,5.10
2023-05-05T16:45:28.783Z,6.32
2023-05-05T16:49:32.875Z,5.85
2023-05-05T16:53:35.904Z,6.47
2023-05-05T16:57:38.621Z,5.93
2023-05-05T17:01:41.655Z,5.75
2023-05-05T17:05:49.024Z,6.28
2023-05-05T17:09:52.842Z,6.75
2023-05-05T17:13:56.286Z,6.30
2023-05-05T17:17:59.070Z,6.57
2023-05-05T17:22:03.164Z,6.80
2023-05-05T17:26:06.217Z,6.45
2023-05-05T17:30:10.193Z,6.60
2023-05-05T17:34:13.000Z,8.00
2023-05-05T17:38:17.490Z,7.38
2023-05-05T17:42:22.901Z,8.27
2023-05-05T17:46:25.857Z,8.95
2023-05-05T17:50:28.660Z,8.68
2023-05-05T17:54:34.765Z,9.57
2023-05-05T17:58:37.722Z,8.73
2023-05-05T18:02:40.765Z,9.70
2023-05-05T18:06:43.940Z,8.50
2023-05-05T18:10:48.891Z,7.22
2023-05-05T18:14:52.109Z,5.50
2023-05-05T18:18:55.018Z,4.35
2023-05-05T18:22:57.878Z,4.28
2023-05-05T18:27:02.340Z,3.80
2023-05-05T18:31:06.378Z,4.03
2023-05-05T18:35:10.707Z,4.05
2023-05-05T18:39:14.221Z,4.75
2023-05-05T18:43:18.526Z,5.03
2023-05-05T18:47:21.583Z,5.32
2023-05-05T18:51:24.604Z,4.30
2023-05-05T18:55:27.694Z,3.50
2023-05-05T18:59:32.226Z,4.07
2023-05-05T19:03:35.693Z,3.80
2023-05-05T19:07:38.690Z,4.70
2023-05-05T19:11:42.970Z,4.03
2023-05-05T19:15:47.337Z,4.63
2023-05-05T19:19:50.900Z,4.88
2023-05-05T19:23:53.922Z,4.70
2023-05-05T19:27:57.556Z,4.57
2023-05-05T19:32:02.106Z,5.28
2023-05-05T19:36:05.894Z,5.45
2023-05-05T19:40:10.402Z,6.13
2023-05-05T19:44:14.044Z,5.38
2023-05-05T19:48:18.565Z,5.72
2023-05-05T19:52:22.766Z,5.53
2023-05-05T19:56:25.907Z,5.70
2023-05-05T20:00:29.065Z,6.43
2023-05-05T20:04:33.515Z,6.18
2023-05-05T20:08:36.683Z,5.57
2023-05-05T20:12:42.117Z,6.13
2023-05-05T20:16:45.543Z,6.18
2023-05-05T20:20:49.949Z,6.20
2023-05-05T20:24:53.485Z,6.30
2023-05-05T20:28:56.402Z,6.05
2023-05-05T20:32:59.421Z,6.15
2023-05-05T20:37:04.472Z,7.28
2023-05-05T20:41:07.539Z,6.70
2023-05-05T20:45:11.607Z,7.00
2023-05-05T20:49:18.031Z,7.30
2023-05-05T20:53:24.277Z,6.95
2023-05-05T20:57:27.132Z,6.18
2023-05-05T21:01:29.884Z,6.53
2023-05-05T21:05:32.655Z,6.53
2023-05-05T21:09:36.995Z,7.40
2023-05-05T21:13:39.938Z,7.07
2023-05-05T21:17:42.904Z,7.65
2023-05-05T21:21:45.698Z,8.70
2023-05-05T21:25:49.780Z,8.88
2023-05-05T21:29:52.795Z,8.20
2023-05-05T21:33:55.785Z,8.43
2023-05-05T21:37:58.606Z,9.07
2023-05-05T21:42:02.694Z,9.23
2023-05-05T21:46:06.461Z,9.95
2023-05-05T21:50:10.889Z,8.43
2023-05-05T21:54:14.223Z,10.80
2023-05-05T21:58:18.358Z,10.70
2023-05-05T22:02:21.188Z,10.38
2023-05-05T22:06:24.002Z,11.15
2023-05-05T22:10:27.498Z,12.32
2023-05-05T22:14:31.715Z,11.27
2023-05-05T22:18:34.570Z,11.68
2023-05-05T22:22:37.296Z,10.10
2023-05-05T22:26:43.048Z,9.70
2023-05-05T22:30:47.242Z,9.73
2023-05-05T22:34:50.108Z,11.27
2023-05-05T22:38:52.793Z,10.48
2023-05-05T22:42:55.558Z,10.75
2023-05-05T22:46:59.869Z,10.65
2023-05-05T22:51:03.459Z,10.27
2023-05-05T22:55:06.765Z,10.60
2023-05-05T22:59:09.597Z,10.82
2023-05-05T23:03:14.057Z,10.73
2023-05-05T23:07:16.827Z,10.75
2023-05-05T23:11:19.586Z,11.18
2023-05-05T23:15:22.751Z,11.25
2023-05-05T23:19:28.909Z,13.18
2023-05-05T23:23:32.003Z,12.05
2023-05-05T23:27:34.784Z,12.15
2023-05-05T23:31:37.581Z,12.43
2023-05-05T23:35:43.373Z,12.52
2023-05-05T23:39:46.244Z,12.80
2023-05-05T23:43:49.231Z,13.75
2023-05-05T23:47:52.341Z,15.07
2023-05-05T23:51:58.435Z,15.27
2023-05-05T23:56:01.382Z,16.23
